createdAt,value
2019-05-19T00:01:09.306Z,12.80
2019-05-19T00:03:38.056Z,12.93
2019-05-19T00:06:06.885Z,13.00
2019-05-19T00:08:35.708Z,11.17
2019-05-19T00:11:04.514Z,8.83
2019-05-19T00:13:33.451Z,6.40
2019-05-19T00:16:02.705Z,15.10
2019-05-19T00:18:31.453Z,8.13
2019-05-19T00:21:00.172Z,6.40
2019-05-19T00:23:29.039Z,10.47
2019-05-19T00:25:57.811Z,10.43
2019-05-19T00:28:26.810Z,15.07
2019-05-19T00:30:57.491Z,10.73
2019-05-19T00:33:26.017Z,8.70
2019-05-19T00:35:54.759Z,10.97
2019-05-19T00:38:23.617Z,12.60
2019-05-19T00:40:52.326Z,7.73
2019-05-19T00:43:21.143Z,4.83
2019-05-19T00:45:50.151Z,5.97
2019-05-19T00:48:19.083Z,7.20
2019-05-19T00:50:47.917Z,7.33
2019-05-19T00:53:16.707Z,5.97
2019-05-19T00:55:46.240Z,8.87
2019-05-19T00:58:15.114Z,6.73
2019-05-19T01:00:43.836Z,6.57
2019-05-19T01:03:12.603Z,5.10
2019-05-19T01:05:41.433Z,4.23
2019-05-19T01:08:10.226Z,4.57
2019-05-19T01:10:39.073Z,5.47
2019-05-19T01:13:09.654Z,4.97
2019-05-19T01:15:38.472Z,4.97
2019-05-19T01:18:07.241Z,4.03
2019-05-19T01:20:36.037Z,3.60
2019-05-19T01:23:04.866Z,4.53
2019-05-19T01:25:33.612Z,7.17
2019-05-19T01:28:02.436Z,3.70
2019-05-19T01:30:31.210Z,7.63
2019-05-19T01:32:59.986Z,6.77
2019-05-19T01:35:28.742Z,5.70
2019-05-19T01:37:57.506Z,7.53
2019-05-19T01:40:26.349Z,8.33
2019-05-19T01:42:55.079Z,6.77
2019-05-19T01:45:23.931Z,6.57
2019-05-19T01:47:52.737Z,6.23
2019-05-19T01:50:21.661Z,5.73
2019-05-19T01:52:50.557Z,5.80
2019-05-19T01:55:19.459Z,6.03
2019-05-19T01:57:48.344Z,7.17
2019-05-19T02:00:18.170Z,7.27
2019-05-19T02:02:46.961Z,5.23
2019-05-19T02:05:16.205Z,6.80
2019-05-19T02:07:44.939Z,5.13
2019-05-19T02:10:13.881Z,5.80
2019-05-19T02:12:42.643Z,6.40
2019-05-19T02:15:12.053Z,6.73
2019-05-19T02:17:40.815Z,5.30
2019-05-19T02:20:10.240Z,3.57
2019-05-19T02:22:38.977Z,2.50
2019-05-19T02:25:08.326Z,2.07
2019-05-19T02:27:37.136Z,1.77
2019-05-19T02:30:08.546Z,3.50
2019-05-19T02:32:37.356Z,2.50
2019-05-19T02:35:07.195Z,2.50
2019-05-19T02:37:35.978Z,2.70
2019-05-19T02:40:06.288Z,2.30
2019-05-19T02:42:37.976Z,3.00
2019-05-19T02:45:09.010Z,3.67
2019-05-19T02:47:40.461Z,2.83
2019-05-19T02:50:09.953Z,1.23
2019-05-19T02:52:40.870Z,2.60
2019-05-19T02:55:09.907Z,3.30
2019-05-19T02:57:39.119Z,2.77
2019-05-19T03:00:09.039Z,2.63
2019-05-19T03:02:37.810Z,4.33
2019-05-19T03:05:06.952Z,4.37
2019-05-19T03:07:35.768Z,4.00
2019-05-19T03:10:05.640Z,5.33
2019-05-19T03:12:34.382Z,4.37
2019-05-19T03:15:03.297Z,5.87
2019-05-19T03:17:32.079Z,4.87
2019-05-19T03:20:00.895Z,3.33
2019-05-19T03:22:29.641Z,3.40
2019-05-19T03:24:58.506Z,3.30
2019-05-19T03:27:27.271Z,2.43
2019-05-19T03:29:57.671Z,5.87
2019-05-19T03:32:28.062Z,4.37
2019-05-19T03:34:56.878Z,4.40
2019-05-19T03:37:25.671Z,3.80
2019-05-19T03:39:54.446Z,3.53
2019-05-19T03:42:23.270Z,5.27
2019-05-19T03:44:52.025Z,4.87
2019-05-19T03:47:20.872Z,3.60
2019-05-19T03:49:49.613Z,3.40
2019-05-19T03:52:18.359Z,3.37
2019-05-19T03:54:47.350Z,5.93
2019-05-19T03:57:16.165Z,7.60
2019-05-19T03:59:45.009Z,6.40
2019-05-19T04:02:13.837Z,4.80
2019-05-19T04:04:42.587Z,5.50
2019-05-19T04:07:11.337Z,6.53
2019-05-19T04:09:41.995Z,2.50
2019-05-19T04:12:10.575Z,3.10
2019-05-19T04:14:39.407Z,3.80
2019-05-19T04:17:08.224Z,5.77
2019-05-19T04:19:38.896Z,5.27
2019-05-19T04:22:07.585Z,6.40
2019-05-19T04:24:39.390Z,2.90
2019-05-19T04:27:08.275Z,4.13
2019-05-19T04:29:39.369Z,4.53
2019-05-19T04:32:07.456Z,1.33
2019-05-19T04:34:36.191Z,6.87
2019-05-19T04:37:04.931Z,2.70
2019-05-19T04:39:33.703Z,3.47
2019-05-19T04:42:02.425Z,2.00
2019-05-19T04:44:31.320Z,3.03
2019-05-19T04:47:00.107Z,4.13
2019-05-19T04:49:28.938Z,4.83
2019-05-19T04:52:06.574Z,3.10
2019-05-19T04:54:28.217Z,4.93
2019-05-19T04:56:56.924Z,4.40
2019-05-19T04:59:25.754Z,3.17
2019-05-19T05:01:55.486Z,5.80
2019-05-19T05:04:29.148Z,2.73
2019-05-19T05:06:54.668Z,3.53
2019-05-19T05:09:23.428Z,3.60
2019-05-19T05:11:52.168Z,3.63
2019-05-19T05:14:20.925Z,3.23
2019-05-19T05:16:49.684Z,1.97
2019-05-19T05:19:18.419Z,3.40
2019-05-19T05:21:47.185Z,4.23
2019-05-19T05:24:15.966Z,2.73
2019-05-19T05:26:44.789Z,4.07
2019-05-19T05:29:13.563Z,3.50
2019-05-19T05:31:42.278Z,4.20
2019-05-19T05:34:11.028Z,2.70
2019-05-19T05:36:39.840Z,4.10
2019-05-19T05:39:08.565Z,5.07
2019-05-19T05:41:37.372Z,3.20
2019-05-19T05:44:06.212Z,2.63
2019-05-19T05:46:34.953Z,2.37
2019-05-19T05:49:03.688Z,3.03
2019-05-19T05:51:32.501Z,4.97
2019-05-19T05:54:01.316Z,5.70
2019-05-19T05:56:30.055Z,3.60
2019-05-19T05:58:58.885Z,3.30
2019-05-19T06:01:27.618Z,4.17
2019-05-19T06:03:56.422Z,5.13
2019-05-19T06:06:25.438Z,2.90
2019-05-19T06:08:54.189Z,5.67
2019-05-19T06:11:22.987Z,8.07
2019-05-19T06:13:52.043Z,5.73
2019-05-19T06:16:21.029Z,3.83
2019-05-19T06:18:49.808Z,6.57
2019-05-19T06:21:18.578Z,5.37
2019-05-19T06:23:47.315Z,5.63
2019-05-19T06:26:17.120Z,4.33
2019-05-19T06:28:46.161Z,4.87
2019-05-19T06:31:14.974Z,4.17
2019-05-19T06:33:43.715Z,8.00
2019-05-19T06:36:12.602Z,7.23
2019-05-19T06:38:41.406Z,4.60
2019-05-19T06:41:10.224Z,6.97
2019-05-19T06:43:38.994Z,4.50
2019-05-19T06:46:07.851Z,5.07
2019-05-19T06:48:36.576Z,5.73
2019-05-19T06:51:05.351Z,5.53
2019-05-19T06:53:34.081Z,5.43
2019-05-19T06:56:02.850Z,4.90
2019-05-19T06:58:31.699Z,5.40
2019-05-19T07:01:00.442Z,6.77
2019-05-19T07:03:29.184Z,6.47
2019-05-19T07:05:57.951Z,6.17
2019-05-19T07:08:26.704Z,7.50
2019-05-19T07:10:55.493Z,7.60
2019-05-19T07:13:24.268Z,7.77
2019-05-19T07:15:53.068Z,5.57
2019-05-19T07:18:21.805Z,7.37
2019-05-19T07:20:50.558Z,7.23
2019-05-19T07:23:27.888Z,7.57
2019-05-19T07:25:50.312Z,7.87
2019-05-19T07:28:19.094Z,7.10
2019-05-19T07:30:47.840Z,7.07
2019-05-19T07:33:16.671Z,6.53
2019-05-19T07:35:45.522Z,6.43
2019-05-19T07:38:14.267Z,6.67
2019-05-19T07:40:43.045Z,7.77
2019-05-19T07:43:11.811Z,7.23
2019-05-19T07:45:40.570Z,7.37
2019-05-19T07:48:09.398Z,6.60
2019-05-19T07:50:39.796Z,6.03
2019-05-19T07:53:08.566Z,6.93
2019-05-19T07:55:37.257Z,6.70
2019-05-19T07:58:06.035Z,6.13
2019-05-19T08:00:34.955Z,6.53
2019-05-19T08:03:04.018Z,5.07
2019-05-19T08:05:33.324Z,5.57
2019-05-19T08:08:02.167Z,4.33
2019-05-19T08:10:30.962Z,5.27
2019-05-19T08:12:59.800Z,4.87
2019-05-19T08:15:28.595Z,4.40
2019-05-19T08:17:57.337Z,6.97
2019-05-19T08:20:26.120Z,5.17
2019-05-19T08:22:56.069Z,4.57
2019-05-19T08:25:24.864Z,5.40
2019-05-19T08:27:53.709Z,6.00
2019-05-19T08:30:22.497Z,6.50
2019-05-19T08:32:51.266Z,6.47
2019-05-19T08:35:20.095Z,7.70
2019-05-19T08:37:48.818Z,6.80
2019-05-19T08:40:17.650Z,5.80
2019-05-19T08:42:46.546Z,6.70
2019-05-19T08:45:16.156Z,6.43
2019-05-19T08:47:44.979Z,7.10
2019-05-19T08:50:13.827Z,6.70
2019-05-19T08:52:42.586Z,6.00
2019-05-19T08:55:11.719Z,7.80
2019-05-19T09:00:18.966Z,7.97
2019-05-19T09:02:47.696Z,7.00
2019-05-19T09:05:16.441Z,6.20
2019-05-19T09:07:45.277Z,6.17
2019-05-19T09:10:14.140Z,7.30
2019-05-19T09:12:42.873Z,6.17
2019-05-19T09:15:11.878Z,6.03
2019-05-19T09:17:40.781Z,6.87
2019-05-19T09:20:09.739Z,7.63
2019-05-19T09:22:38.568Z,5.37
2019-05-19T09:25:07.719Z,6.27
2019-05-19T09:27:37.928Z,6.00
2019-05-19T09:30:08.955Z,6.77
2019-05-19T09:32:37.714Z,6.33
2019-05-19T09:35:07.565Z,6.03
2019-05-19T09:37:36.304Z,5.85
2019-05-19T09:40:07.835Z,5.45
2019-05-19T09:42:36.633Z,6.20
2019-05-19T09:45:09.159Z,5.13
2019-05-19T09:47:37.986Z,4.40
2019-05-19T09:50:07.183Z,4.37
2019-05-19T09:52:36.019Z,5.47
2019-05-19T09:55:05.565Z,5.65
2019-05-19T09:57:34.426Z,4.95
2019-05-19T10:00:04.176Z,4.67
2019-05-19T10:02:32.930Z,5.75
2019-05-19T10:05:01.788Z,6.53
2019-05-19T10:07:30.490Z,7.60
2019-05-19T10:10:11.283Z,7.08
2019-05-19T10:12:41.473Z,6.78
2019-05-19T10:15:11.909Z,6.22
2019-05-19T10:17:40.654Z,6.23
2019-05-19T10:20:11.592Z,6.47
2019-05-19T10:22:40.407Z,7.12
2019-05-19T10:25:21.819Z,6.97
2019-05-19T10:27:41.064Z,7.87
2019-05-19T10:30:10.463Z,9.47
2019-05-19T10:32:39.203Z,8.47
2019-05-19T10:35:08.286Z,9.85
2019-05-19T10:37:37.228Z,8.73
2019-05-19T10:40:09.153Z,8.55
2019-05-19T10:42:37.998Z,8.37
2019-05-19T10:45:09.656Z,7.80
2019-05-19T10:47:38.389Z,7.87
2019-05-19T10:50:07.660Z,6.27
2019-05-19T10:52:36.383Z,7.60
2019-05-19T10:55:06.223Z,8.40
2019-05-19T10:57:35.003Z,7.70
2019-05-19T11:00:05.909Z,6.72
2019-05-19T11:02:34.712Z,6.33
2019-05-19T11:05:04.178Z,6.65
2019-05-19T11:07:32.904Z,6.53
2019-05-19T11:10:01.761Z,8.08
2019-05-19T11:12:30.498Z,6.53
2019-05-19T11:14:59.239Z,5.80
2019-05-19T11:17:28.196Z,5.85
2019-05-19T11:19:56.932Z,5.55
2019-05-19T11:22:25.676Z,5.55
2019-05-19T11:24:54.581Z,7.20
2019-05-19T11:27:23.389Z,8.18
2019-05-19T11:29:52.128Z,8.73
2019-05-19T11:32:21.928Z,7.83
2019-05-19T11:34:50.709Z,9.20
2019-05-19T11:37:19.536Z,10.35
2019-05-19T11:39:48.312Z,10.43
2019-05-19T11:42:17.148Z,9.70
2019-05-19T11:44:45.890Z,10.82
2019-05-19T11:47:14.661Z,10.30
2019-05-19T11:49:43.393Z,9.13
2019-05-19T11:52:12.159Z,10.82
2019-05-19T11:54:41.007Z,9.80
2019-05-19T11:57:09.748Z,9.70
2019-05-19T11:59:38.520Z,9.98
2019-05-19T12:02:07.333Z,10.10
2019-05-19T12:04:36.356Z,11.35
2019-05-19T12:07:05.070Z,10.08
2019-05-19T12:09:34.014Z,10.18
2019-05-19T12:12:02.769Z,10.25
2019-05-19T12:14:31.589Z,9.60
2019-05-19T12:17:00.327Z,8.40
2019-05-19T12:19:29.191Z,8.70
2019-05-19T12:21:57.972Z,8.13
2019-05-19T12:24:26.769Z,7.08
2019-05-19T12:26:55.633Z,7.30
2019-05-19T12:29:24.382Z,7.60
2019-05-19T12:31:53.185Z,7.55
2019-05-19T12:34:21.952Z,7.33
2019-05-19T12:36:50.691Z,6.37
2019-05-19T12:39:19.460Z,7.10
2019-05-19T12:41:48.250Z,7.58
2019-05-19T12:44:17.079Z,7.67
2019-05-19T12:46:45.893Z,7.58
2019-05-19T12:49:14.697Z,8.15
2019-05-19T12:51:43.525Z,6.62
2019-05-19T12:54:12.360Z,6.35
2019-05-19T12:56:41.128Z,6.75
2019-05-19T12:59:09.870Z,6.65
2019-05-19T13:01:38.667Z,5.78
2019-05-19T13:04:07.506Z,6.22
2019-05-19T13:06:36.245Z,5.10
2019-05-19T13:09:05.594Z,5.37
2019-05-19T13:11:34.355Z,4.80
2019-05-19T13:14:03.101Z,6.25
2019-05-19T13:16:31.836Z,4.85
2019-05-19T13:19:00.638Z,3.67
2019-05-19T13:21:29.448Z,3.90
2019-05-19T13:23:58.324Z,3.52
2019-05-19T13:26:27.171Z,3.70
2019-05-19T13:28:55.899Z,3.75
2019-05-19T13:31:24.626Z,3.60
2019-05-19T13:33:53.384Z,3.70
2019-05-19T13:36:22.209Z,3.55
2019-05-19T13:38:51.046Z,3.85
2019-05-19T13:41:19.998Z,3.22
2019-05-19T13:43:48.800Z,3.65
2019-05-19T13:46:17.607Z,3.60
2019-05-19T13:48:46.373Z,3.72
2019-05-19T13:51:15.185Z,3.42
2019-05-19T13:53:44.103Z,3.22
2019-05-19T13:56:12.850Z,3.17
2019-05-19T13:58:41.646Z,4.37
2019-05-19T14:01:10.389Z,3.72
2019-05-19T14:03:39.138Z,4.22
2019-05-19T14:06:07.890Z,4.30
2019-05-19T14:08:36.663Z,4.92
2019-05-19T14:11:05.430Z,4.58
2019-05-19T14:13:35.746Z,4.65
2019-05-19T14:16:04.581Z,4.25
2019-05-19T14:18:33.334Z,4.37
2019-05-19T14:21:02.071Z,4.97
2019-05-19T14:23:30.825Z,4.10
2019-05-19T14:25:59.585Z,5.28
2019-05-19T14:28:28.411Z,5.42
2019-05-19T14:30:57.234Z,5.62
2019-05-19T14:33:26.047Z,6.25
2019-05-19T14:35:55.223Z,6.22
2019-05-19T14:38:23.967Z,6.20
2019-05-19T14:40:52.788Z,6.45
2019-05-19T14:43:23.230Z,7.75
2019-05-19T14:45:52.058Z,7.65
2019-05-19T14:48:20.814Z,8.30
2019-05-19T14:50:49.661Z,9.35
2019-05-19T14:53:18.418Z,9.30
2019-05-19T14:55:47.180Z,7.83
2019-05-19T14:58:15.990Z,8.20
2019-05-19T15:00:45.422Z,8.20
2019-05-19T15:03:14.248Z,7.83
2019-05-19T15:05:43.002Z,7.70
2019-05-19T15:08:11.780Z,7.78
2019-05-19T15:10:40.537Z,6.92
2019-05-19T15:13:09.263Z,7.40
2019-05-19T15:15:38.029Z,6.35
2019-05-19T15:18:06.782Z,5.75
2019-05-19T15:20:35.594Z,5.62
2019-05-19T15:23:04.327Z,6.40
2019-05-19T15:25:33.201Z,5.05
2019-05-19T15:28:05.189Z,4.65
2019-05-19T15:30:32.571Z,4.60
2019-05-19T15:33:01.346Z,4.78
2019-05-19T15:35:30.144Z,5.33
2019-05-19T15:37:58.883Z,4.90
2019-05-19T15:40:27.710Z,4.40
2019-05-19T15:42:56.546Z,4.58
2019-05-19T15:45:25.236Z,4.25
2019-05-19T15:47:54.086Z,4.55
2019-05-19T15:50:22.887Z,4.67
2019-05-19T15:52:51.620Z,4.10
2019-05-19T15:55:20.385Z,4.10
2019-05-19T15:57:50.774Z,4.40
2019-05-19T16:00:22.150Z,4.65
2019-05-19T16:02:51.113Z,4.28
2019-05-19T16:05:19.995Z,5.17
2019-05-19T16:07:48.766Z,5.40
2019-05-19T16:10:17.617Z,5.12
2019-05-19T16:12:46.399Z,5.70
2019-05-19T16:15:15.445Z,4.75
2019-05-19T16:17:44.284Z,5.05
2019-05-19T16:20:13.131Z,5.40
2019-05-19T16:22:41.861Z,4.65
2019-05-19T16:25:11.255Z,5.58
2019-05-19T16:27:39.991Z,4.97
2019-05-19T16:30:09.319Z,5.78
2019-05-19T16:32:38.046Z,5.33
2019-05-19T16:35:07.303Z,5.67
2019-05-19T16:37:36.162Z,5.17
2019-05-19T16:40:06.671Z,4.67
2019-05-19T16:42:36.081Z,5.95
2019-05-19T16:45:07.464Z,4.85
2019-05-19T16:47:36.253Z,5.03
2019-05-19T16:50:06.886Z,5.33
2019-05-19T16:52:36.759Z,4.37
2019-05-19T16:55:23.740Z,4.33
2019-05-19T16:57:52.502Z,3.85
2019-05-19T17:00:22.620Z,4.58
2019-05-19T17:02:51.397Z,4.62
2019-05-19T17:05:20.340Z,5.00
2019-05-19T17:07:49.134Z,4.80
2019-05-19T17:10:18.204Z,5.15
2019-05-19T17:12:46.938Z,6.33
2019-05-19T17:15:16.461Z,6.37
2019-05-19T17:17:45.248Z,5.90
2019-05-19T17:20:14.624Z,6.08
2019-05-19T17:22:43.447Z,5.65
2019-05-19T17:25:12.414Z,5.97
2019-05-19T17:27:41.228Z,5.87
2019-05-19T17:30:12.068Z,5.70
2019-05-19T17:32:40.838Z,5.53
2019-05-19T17:35:09.992Z,6.10
2019-05-19T17:37:38.854Z,6.22
2019-05-19T17:40:09.294Z,7.30
2019-05-19T17:42:38.220Z,6.17
2019-05-19T17:45:08.179Z,6.80
2019-05-19T17:47:36.977Z,7.05
2019-05-19T17:50:07.428Z,6.65
2019-05-19T17:52:36.200Z,6.97
2019-05-19T17:55:07.526Z,6.60
2019-05-19T17:57:37.528Z,6.17
2019-05-19T18:00:10.735Z,6.55
2019-05-19T18:02:39.534Z,6.90
2019-05-19T18:05:08.451Z,6.97
2019-05-19T18:07:37.223Z,6.35
2019-05-19T18:10:07.479Z,6.42
2019-05-19T18:12:37.263Z,7.97
2019-05-19T18:15:07.385Z,6.80
2019-05-19T18:17:36.196Z,6.80
2019-05-19T18:20:06.434Z,7.55
2019-05-19T18:22:35.182Z,6.95
2019-05-19T18:25:04.630Z,7.60
2019-05-19T18:27:33.415Z,7.37
2019-05-19T18:30:02.291Z,7.42
2019-05-19T18:32:31.234Z,7.85
2019-05-19T18:35:00.126Z,9.30
2019-05-19T18:37:31.676Z,9.83
2019-05-19T18:40:00.424Z,9.55
2019-05-19T18:42:31.062Z,10.30
2019-05-19T18:45:00.015Z,10.58
2019-05-19T18:47:28.798Z,9.53
2019-05-19T18:49:57.549Z,9.20
2019-05-19T18:52:26.313Z,8.78
2019-05-19T18:54:55.131Z,8.18
2019-05-19T18:57:24.005Z,9.23
2019-05-19T18:59:54.765Z,9.55
2019-05-19T19:02:23.247Z,9.50
2019-05-19T19:04:52.079Z,10.45
2019-05-19T19:07:22.576Z,9.75
2019-05-19T19:09:51.311Z,10.43
2019-05-19T19:12:20.037Z,7.72
2019-05-19T19:14:48.819Z,8.53
2019-05-19T19:17:17.631Z,8.80
2019-05-19T19:19:46.488Z,8.28
2019-05-19T19:22:15.350Z,8.95
2019-05-19T19:24:44.181Z,8.60
2019-05-19T19:27:16.216Z,8.83
2019-05-19T19:29:45.014Z,9.65
2019-05-19T19:32:14.121Z,7.70
2019-05-19T19:34:43.160Z,8.97
2019-05-19T19:37:12.011Z,9.17
2019-05-19T19:39:40.734Z,8.80
2019-05-19T19:42:09.458Z,9.77
2019-05-19T19:44:38.221Z,8.23
2019-05-19T19:47:06.973Z,9.13
2019-05-19T19:49:35.721Z,8.20
2019-05-19T19:52:04.566Z,9.13
2019-05-19T19:54:33.374Z,8.65
2019-05-19T19:57:02.119Z,7.50
2019-05-19T19:59:30.988Z,7.93
2019-05-19T20:01:59.739Z,8.70
2019-05-19T20:04:29.595Z,7.92
2019-05-19T20:06:58.337Z,8.13
2019-05-19T20:09:27.198Z,8.37
2019-05-19T20:11:55.897Z,9.33
2019-05-19T20:14:24.770Z,9.10
2019-05-19T20:16:53.524Z,10.23
2019-05-19T20:19:22.359Z,10.03
2019-05-19T20:21:51.186Z,11.77
2019-05-19T20:24:20.006Z,12.77
2019-05-19T20:26:48.893Z,13.73
2019-05-19T20:29:17.670Z,14.70
2019-05-19T20:31:46.438Z,13.63
2019-05-19T20:34:15.235Z,13.03
2019-05-19T20:36:43.997Z,10.35
2019-05-19T20:39:12.836Z,9.60
2019-05-19T20:41:41.580Z,10.17
2019-05-19T20:44:10.401Z,10.67
2019-05-19T20:46:39.145Z,8.97
2019-05-19T20:49:07.897Z,10.80
2019-05-19T20:51:36.777Z,10.37
2019-05-19T20:54:05.526Z,8.87
2019-05-19T20:56:34.261Z,8.83
2019-05-19T20:59:03.140Z,8.47
2019-05-19T21:01:31.989Z,8.40
2019-05-19T21:04:02.151Z,6.43
2019-05-19T21:06:30.930Z,6.40
2019-05-19T21:08:59.736Z,5.70
2019-05-19T21:11:28.548Z,6.73
2019-05-19T21:13:57.324Z,7.30
2019-05-19T21:16:26.069Z,5.87
2019-05-19T21:18:54.798Z,7.53
2019-05-19T21:21:23.550Z,7.23
2019-05-19T21:23:52.309Z,5.80
2019-05-19T21:26:21.044Z,6.93
2019-05-19T21:28:49.877Z,6.60
2019-05-19T21:31:18.667Z,6.17
2019-05-19T21:33:47.471Z,7.50
2019-05-19T21:36:16.228Z,6.43
2019-05-19T21:38:44.973Z,6.93
2019-05-19T21:41:13.788Z,7.67
2019-05-19T21:43:42.556Z,7.20
2019-05-19T21:46:11.303Z,6.33
2019-05-19T21:48:40.438Z,7.43
2019-05-19T21:51:09.276Z,6.63
2019-05-19T21:53:38.025Z,7.50
2019-05-19T21:56:06.845Z,7.30
2019-05-19T21:58:35.677Z,7.00
2019-05-19T22:01:04.400Z,6.07
2019-05-19T22:03:33.197Z,6.13
2019-05-19T22:06:01.961Z,5.90
2019-05-19T22:08:31.910Z,6.77
2019-05-19T22:11:00.667Z,6.27
2019-05-19T22:13:29.399Z,6.33
2019-05-19T22:16:11.530Z,6.80
2019-05-19T22:18:28.830Z,6.27
2019-05-19T22:20:57.639Z,7.57
2019-05-19T22:23:26.454Z,8.33
2019-05-19T22:25:57.917Z,8.40
2019-05-19T22:28:26.652Z,8.60
2019-05-19T22:30:55.451Z,9.30
2019-05-19T22:33:24.235Z,8.33
2019-05-19T22:35:53.057Z,8.60
2019-05-19T22:38:22.290Z,8.43
2019-05-19T22:40:51.132Z,9.70
2019-05-19T22:43:19.947Z,9.33
2019-05-19T22:45:48.675Z,9.80
2019-05-19T22:48:17.477Z,10.83
2019-05-19T22:50:46.404Z,8.70
2019-05-19T22:53:15.773Z,9.00
2019-05-19T22:55:44.631Z,9.30
2019-05-19T22:58:13.359Z,10.43
2019-05-19T23:00:42.275Z,9.87
2019-05-19T23:03:12.533Z,10.20
2019-05-19T23:05:41.968Z,9.53
2019-05-19T23:08:10.704Z,9.73
2019-05-19T23:10:39.638Z,9.17
2019-05-19T23:13:08.503Z,9.37
2019-05-19T23:15:38.460Z,9.33
2019-05-19T23:18:15.885Z,9.73
2019-05-19T23:20:40.161Z,10.87
2019-05-19T23:23:10.428Z,10.20
2019-05-19T23:25:39.235Z,10.63
2019-05-19T23:28:07.963Z,11.40
2019-05-19T23:30:36.742Z,11.53
2019-05-19T23:33:05.593Z,11.27
2019-05-19T23:35:34.637Z,11.10
2019-05-19T23:38:03.418Z,11.00
2019-05-19T23:40:32.157Z,11.00
2019-05-19T23:43:00.903Z,9.43
2019-05-19T23:45:29.702Z,10.57
2019-05-19T23:47:58.429Z,11.47
2019-05-19T23:50:27.153Z,9.80
2019-05-19T23:52:55.992Z,9.03
2019-05-19T23:55:24.720Z,11.80
2019-05-19T23:57:53.534Z,11.03
